Latest Weather Observations for Cato Island

IDQ60801

Issued at 7:02 pm EST Saturday 29 August 2015 (issued every 30 minutes, with the page automatically refreshed every 10 minutes)

About weather observations | Map of weather stations | Latest weather observations for QLD | Other Formats
Station Details ID: 200601 Name: CATO ISLAND Lat: -23.25 Lon: 155.54 Height: 6.3 m
Data from the previous 72 hours. | See also: Recent months for locations in Queensland
Date/Time
EST
Temp
°C
App
Temp
°C
Dew
Point
Rel
Hum
%
Delta-T
°C
Wind Press
QNH
hPa
Press
MSL
hPa
Rain
since 9 am
mm
Dir
 
Spd
km/h
Gust
km/h
Spd
kts
Gust
kts
29/07:00pm 22.0 - - - - E 15 19 8 10 1018.6 - -
29/06:30pm 21.9 - - - - E 15 17 8 9 1018.5 - -
29/06:00pm 21.9 - - - - E 15 17 8 9 1018.4 1018.3 -
29/05:30pm 21.9 - - - - E 15 19 8 10 1018.0 - -
29/05:00pm 22.0 - - - - E 13 17 7 9 1018.0 1018.0 -
29/04:30pm 22.2 - - - - E 15 19 8 10 1017.9 - -
29/04:00pm 22.6 - - - - E 15 17 8 9 1017.8 1017.8 -
29/03:30pm 23.0 - - - - E 15 19 8 10 1018.0 - -
29/03:00pm 23.1 - - - - ENE 11 15 6 8 1018.2 1018.2 -
29/02:30pm 23.0 - - - - ENE 15 17 8 9 1018.2 - -
29/02:00pm 23.1 - - - - E 15 20 8 11 1018.5 1018.5 -
29/01:30pm 23.4 - - - - ENE 17 20 9 11 1018.8 - -
29/01:00pm 23.4 - - - - E 15 17 8 9 1019.0 1019.0 -
29/12:30pm 23.9 - - - - ENE 15 19 8 10 1019.4 - -
29/12:00pm 23.8 - - - - ENE 17 20 9 11 1019.9 1019.9 -
29/11:30am 23.3 - - - - ENE 17 20 9 11 1020.3 - -
29/11:00am 23.4 - - - - ENE 17 20 9 11 1020.7 1020.7 -
29/10:30am 23.5 - - - - ENE 19 22 10 12 1021.1 - -
29/10:00am 23.2 - - - - ENE 15 19 8 10 1021.3 1021.3 -
29/09:30am 23.1 - - - - E 15 19 8 10 1021.5 - -
29/09:00am 23.1 - - - - ENE 15 17 8 9 1021.5 1021.5 -
29/08:30am 22.6 - - - - ENE 13 17 7 9 1021.7 - -
29/08:00am 22.3 - - - - ENE 15 17 8 9 1021.4 1021.4 -
29/07:30am 22.4 - - - - E 11 15 6 8 1021.1 - -
29/07:00am 22.2 - - - - E 11 15 6 8 1020.9 1020.9 -
29/06:30am 21.5 - - - - E 9 13 5 7 1020.7 - -
29/06:00am 20.6 - - - - NE 11 15 6 8 1020.4 1020.4 -
29/05:30am 20.9 - - - - ENE 11 13 6 7 1020.1 - -
29/05:00am 21.0 - - - - ENE 13 15 7 8 1019.6 1019.6 -
29/04:30am 20.7 - - - - ENE 11 15 6 8 1019.4 - -
29/04:00am 20.9 - - - - ENE 13 15 7 8 1019.1 1019.1 -
29/03:30am 20.9 - - - - ENE 15 17 8 9 1019.2 - -
29/03:00am 20.7 - - - - NE 15 17 8 9 1019.5 1019.4 -
29/02:30am 21.0 - - - - NE 17 20 9 11 1019.6 - -
29/02:00am 20.8 - - - - NE 19 22 10 12 1019.9 1019.8 -
29/01:30am 21.0 - - - - NE 15 17 8 9 1020.0 - -
29/01:00am 21.0 - - - - NE 11 13 6 7 1020.5 1020.5 -
29/12:30am 20.9 - - - - NE 2 6 1 3 1020.7 - -
29/12:00am 21.0 - - - - CALM 0 4 0 2 1021.2 1021.1 -
 
Date/Time
EST
Temp
°C
App
Temp
°C
Dew
Point
Rel
Hum
%
Delta-T
°C
Wind Press
QNH
hPa
Press
MSL
hPa
Rain
since 9 am
mm
Dir
 
Spd
km/h
Gust
km/h
Spd
kts
Gust
kts
28/11:30pm 21.1 - - - - NE 2 4 1 2 1021.2 - -
28/11:00pm 21.2 - - - - CALM 0 4 0 2 1021.3 1021.3 -
28/10:30pm 21.3 - - - - NE 2 6 1 3 1021.2 - -
28/10:00pm 21.4 - - - - NE 2 6 1 3 1020.9 1020.9 -
28/09:30pm 21.4 - - - - ENE 4 6 2 3 1021.0 - -
28/09:00pm 21.5 - - - - NE 2 6 1 3 1020.9 1020.9 -
28/08:30pm 21.6 - - - - ENE 2 6 1 3 1020.7 - -
28/08:00pm 21.7 - - - - ENE 2 6 1 3 1020.3 1020.3 -
28/07:30pm 21.5 - - - - NE 2 6 1 3 1019.9 - -
28/07:00pm 21.5 - - - - CALM 0 6 0 3 1019.7 1019.7 -
28/06:30pm 21.5 - - - - ENE 2 6 1 3 1019.5 - -
28/06:00pm 21.5 - - - - NE 13 22 7 12 1019.4 1019.4 -
28/05:30pm 21.7 - - - - NE 20 24 11 13 1019.2 - -
28/05:00pm 22.1 - - - - NE 22 24 12 13 1018.9 1018.9 -
28/04:30pm 22.2 - - - - ENE 20 24 11 13 1018.7 - -
28/04:00pm 22.5 - - - - ENE 22 26 12 14 1018.4 1018.4 -
28/03:30pm 23.0 - - - - NE 22 26 12 14 1018.2 - -
28/03:00pm 23.5 - - - - ENE 24 30 13 16 1018.3 1018.3 -
28/02:30pm 23.8 - - - - NE 22 28 12 15 1018.5 - -
28/02:00pm 24.1 - - - - NE 22 28 12 15 1018.6 1018.6 -
28/01:30pm 24.3 - - - - NE 20 24 11 13 1019.1 - -
28/01:00pm 24.0 - - - - ENE 20 24 11 13 1019.3 1019.3 -
28/12:30pm 23.8 - - - - ENE 20 24 11 13 1019.7 - -
28/12:00pm 24.0 - - - - ENE 22 24 12 13 1020.1 1020.0 -
28/11:30am 23.5 - - - - ENE 22 26 12 14 1020.5 - -
28/11:00am 23.3 - - - - ENE 24 28 13 15 1021.0 1020.9 -
28/10:30am 23.6 - - - - ENE 28 30 15 16 1021.2 - -
28/10:00am 23.0 - - - - ENE 26 30 14 16 1021.6 1021.6 -
28/09:30am 23.4 - - - - ENE 24 28 13 15 1021.6 - -
28/09:00am 23.6 - - - - ENE 19 22 10 12 1021.6 1021.6 -
28/08:30am 22.8 - - - - ENE 19 22 10 12 1021.7 - -
28/08:00am 22.8 - - - - ENE 24 28 13 15 1021.2 1021.3 -
28/07:30am 22.2 - - - - ENE 28 33 15 18 1021.0 - -
28/07:00am 22.1 - - - - E 24 28 13 15 1020.8 1020.8 -
28/06:30am 21.7 - - - - E 22 26 12 14 1020.6 - -
28/06:00am 21.5 - - - - E 24 28 13 15 1020.3 1020.4 -
28/05:30am 21.4 - - - - E 24 30 13 16 1020.0 - -
28/05:00am 21.4 - - - - E 24 26 13 14 1019.8 1019.8 -
28/04:30am 21.3 - - - - E 22 26 12 14 1019.7 - -
28/04:00am 21.6 - - - - E 20 24 11 13 1019.6 1019.6 -
28/03:30am 21.4 - - - - E 20 24 11 13 1019.6 - -
28/03:00am 21.4 - - - - E 20 24 11 13 1019.7 1019.7 -
28/02:30am 21.3 - - - - E 22 26 12 14 1019.8 - -
28/02:00am 21.4 - - - - ENE 22 26 12 14 1020.0 1020.0 -
28/01:30am 21.5 - - - - ENE 22 26 12 14 1020.4 - -
28/01:00am 21.6 - - - - ENE 22 26 12 14 1020.7 1020.7 -
28/12:30am 21.7 - - - - ENE 22 26 12 14 1020.9 - -
28/12:00am 21.3 - - - - ENE 20 24 11 13 1021.1 1021.1 -
 
Date/Time
EST
Temp
°C
App
Temp
°C
Dew
Point
Rel
Hum
%
Delta-T
°C
Wind Press
QNH
hPa
Press
MSL
hPa
Rain
since 9 am
mm
Dir
 
Spd
km/h
Gust
km/h
Spd
kts
Gust
kts
27/11:30pm 21.7 - - - - E 22 24 12 13 1021.2 - -
27/11:00pm 21.6 - - - - E 20 24 11 13 1021.3 1021.3 -
27/10:30pm 21.5 - - - - E 22 26 12 14 1021.5 - -
27/10:00pm 21.6 - - - - E 20 24 11 13 1021.8 1021.7 -
27/09:30pm 21.9 - - - - E 20 24 11 13 1021.8 - -
27/09:00pm 21.8 - - - - E 24 28 13 15 1021.8 1021.8 -
27/08:30pm 21.9 - - - - ENE 20 26 11 14 1021.7 - -
27/08:00pm 22.0 - - - - E 17 20 9 11 1021.6 1021.6 -
27/07:30pm 22.0 - - - - E 17 20 9 11 1021.4 - -
27/07:00pm 21.8 - - - - E 15 19 8 10 1021.0 1021.1 -
27/06:30pm 21.9 - - - - E 15 17 8 9 1020.9 - -
27/06:00pm 21.7 - - - - ENE 17 20 9 11 1020.5 1020.5 -
27/05:30pm 21.8 - - - - E 17 20 9 11 1020.2 - -
27/05:00pm 22.1 - - - - ENE 19 22 10 12 1019.8 1019.8 -
27/04:30pm 22.5 - - - - ENE 17 22 9 12 1019.4 - -
27/04:00pm 22.5 - - - - ENE 17 20 9 11 1018.8 1018.9 -
27/03:30pm 22.7 - - - - ENE 17 20 9 11 1018.9 - -
27/03:00pm 22.9 - - - - ENE 20 24 11 13 1018.8 1018.7 -
27/02:30pm 23.4 - - - - NE 20 26 11 14 1019.1 - -
27/02:00pm 23.5 - - - - ENE 22 26 12 14 1019.3 1019.3 -
27/01:30pm 23.6 - - - - NE 20 24 11 13 1019.6 - -
27/01:00pm 23.8 - - - - ENE 22 26 12 14 1019.8 1019.8 -
27/12:30pm 23.7 - - - - ENE 22 26 12 14 1020.3 - -
27/12:00pm 24.0 - - - - ENE 22 28 12 15 1020.6 1020.6 -
27/11:30am 23.6 - - - - ENE 20 26 11 14 1020.9 - -
27/11:00am 23.3 - - - - ENE 22 26 12 14 1021.4 1021.4 -
27/10:30am 23.8 - - - - ENE 22 26 12 14 1021.6 - -
27/10:00am 23.1 - - - - ENE 22 26 12 14 1021.9 1021.9 -
27/09:30am 23.1 - - - - ENE 19 22 10 12 1022.3 - -
27/09:00am 23.1 - - - - ENE 19 22 10 12 1022.3 1022.3 -
27/08:30am 22.6 - - - - ENE 20 24 11 13 1022.3 - -
27/08:00am 22.1 - - - - ENE 20 26 11 14 1022.3 1022.3 -
27/07:30am 21.8 - - - - ENE 20 26 11 14 1022.1 - -
27/07:00am 21.8 - - - - NE 24 28 13 15 1021.9 1021.9 -
27/06:30am 21.0 - - - - ENE 19 24 10 13 1021.7 - -
27/06:00am 20.8 - - - - ENE 20 26 11 14 1021.4 1021.5 -
27/05:30am 20.9 - - - - ENE 22 26 12 14 1021.1 - -
27/05:00am 21.1 - - - - E 24 26 13 14 1020.7 1020.7 -
27/04:30am 21.0 - - - - ENE 22 26 12 14 1020.6 - -
27/04:00am 21.1 - - - - ENE 24 30 13 16 1020.4 1020.4 -
27/03:30am 21.3 - - - - ENE 24 30 13 16 1020.3 - -
27/03:00am 21.0 - - - - ENE 22 28 12 15 1020.5 1020.5 -
27/02:30am 21.1 - - - - E 24 28 13 15 1020.4 - -
27/02:00am 21.3 - - - - ENE 24 30 13 16 1020.5 1020.5 -
27/01:30am 21.2 - - - - ENE 24 30 13 16 1020.8 - -
27/01:00am 21.2 - - - - E 22 24 12 13 1021.0 1021.0 -
27/12:30am 21.3 - - - - E 20 24 11 13 1021.3 - -
27/12:00am 21.2 - - - - E 20 26 11 14 1021.6 1021.6 -
 
Date/Time
EST
Temp
°C
App
Temp
°C
Dew
Point
Rel
Hum
%
Delta-T
°C
Wind Press
QNH
hPa
Press
MSL
hPa
Rain
since 9 am
mm
Dir
 
Spd
km/h
Gust
km/h
Spd
kts
Gust
kts
26/11:30pm 21.3 - - - - ENE 22 26 12 14 1021.9 - -
26/11:00pm 21.5 - - - - ENE 24 28 13 15 1022.0 1022.0 -
26/10:30pm 21.3 - - - - ENE 22 26 12 14 1022.0 - -
26/10:00pm 21.5 - - - - ENE 24 30 13 16 1022.1 1022.2 -
26/09:30pm 21.5 - - - - ENE 24 30 13 16 1022.1 - -
26/09:00pm 21.4 - - - - ENE 26 30 14 16 1022.1 1022.1 -
26/08:30pm 21.5 - - - - ENE 24 30 13 16 1021.9 - -
26/08:00pm 21.6 - - - - ENE 24 26 13 14 1021.8 1021.9 -
26/07:30pm 21.7 - - - - ENE 22 28 12 15 1021.6 - -

Other Formats:

Comma delimited format used in spreadsheet applications
http://www.bom.gov.au/fwo/IDQ60801/IDQ60801.94394.axf

JavaScript Object Notation format (JSON) in row-major order
http://www.bom.gov.au/fwo/IDQ60801/IDQ60801.94394.json